Time;durP1;ratioP1;P1;durP2;ratioP2;P2;SDS_P1;SDS_P2;PMS_P1;PMS_P2;Temp;Humidity;BMP_temperature;BMP_pressure;BME280_temperature;BME280_humidity;BME280_pressure;Samples;Min_cycle;Max_cycle;Signal;HPM_P1;HPM_P2
2022/11/17 00:02:20;;;;;;;0.35;0.35;;;2.50;99.90;;;;;;4961768;28;20496;-68
2022/11/17 00:04:46;;;;;;;0.47;0.45;;;2.50;99.90;;;;;;4962625;28;20051;-69
2022/11/17 00:07:13;;;;;;;0.43;0.25;;;2.50;99.90;;;;;;4962671;28;20467;-68
2022/11/17 00:09:40;;;;;;;0.50;0.28;;;2.40;99.90;;;;;;4963068;28;20113;-66
2022/11/17 00:14:58;;;;;;;0.85;0.63;;;2.40;99.90;;;;;;4956734;28;20066;-68
2022/11/17 00:17:26;;;;;;;4.78;1.98;;;2.40;99.90;;;;;;4966159;28;20145;-67
2022/11/17 00:22:38;;;;;;;1.15;0.77;;;2.30;99.90;;;;;;4960429;28;20038;-67
2022/11/17 00:25:05;;;;;;;0.63;0.60;;;2.30;99.90;;;;;;4963384;28;20041;-67
2022/11/17 00:27:32;;;;;;;0.82;0.77;;;2.20;99.90;;;;;;4959743;28;20429;-67
2022/11/17 00:29:59;;;;;;;3.13;0.60;;;2.20;99.90;;;;;;4962929;28;20404;-67
2022/11/17 00:35:11;;;;;;;0.75;0.65;;;2.20;99.90;;;;;;4956750;28;20157;-69
2022/11/17 00:40:25;;;;;;;0.40;0.40;;;2.20;99.90;;;;;;4960559;28;20353;-67
2022/11/17 00:42:52;;;;;;;3.20;0.47;;;2.20;99.90;;;;;;4966371;28;20051;-67
2022/11/17 00:45:19;;;;;;;0.90;0.60;;;2.20;99.90;;;;;;4962297;28;20101;-67
2022/11/17 00:47:47;;;;;;;0.88;0.43;;;2.30;99.90;;;;;;4961678;28;20054;-66
2022/11/17 00:50:14;;;;;;;1.02;0.65;;;2.30;99.90;;;;;;4963061;28;20047;-67
2022/11/17 00:52:41;;;;;;;2.30;0.90;;;2.30;99.90;;;;;;4962245;28;20043;-66
2022/11/17 00:55:08;;;;;;;1.73;0.65;;;2.30;99.90;;;;;;4961751;28;20074;-67
2022/11/17 00:57:35;;;;;;;1.27;0.60;;;2.30;99.90;;;;;;4963020;28;20050;-67
2022/11/17 01:00:02;;;;;;;0.68;0.50;;;2.30;99.90;;;;;;4965446;28;20093;-66
2022/11/17 01:02:29;;;;;;;0.52;0.52;;;2.20;99.90;;;;;;4957697;28;20137;-68
2022/11/17 01:04:56;;;;;;;0.55;0.40;;;2.20;99.90;;;;;;4962007;28;20046;-66
2022/11/17 01:07:23;;;;;;;0.40;0.32;;;2.20;99.90;;;;;;4960203;28;20045;-67
2022/11/17 01:09:50;;;;;;;1.00;0.80;;;2.20;99.90;;;;;;4966527;28;20068;-67
2022/11/17 01:12:17;;;;;;;0.98;0.80;;;2.20;99.90;;;;;;4955588;28;20054;-66
2022/11/17 01:14:44;;;;;;;1.25;0.90;;;2.30;99.90;;;;;;4960274;28;20061;-67
2022/11/17 01:17:11;;;;;;;1.08;0.77;;;2.30;99.90;;;;;;4958917;28;20513;-67
2022/11/17 01:19:38;;;;;;;1.10;1.00;;;2.30;99.90;;;;;;4959897;28;20562;-68
2022/11/17 01:22:05;;;;;;;1.27;1.00;;;2.30;99.90;;;;;;4963072;28;20038;-66
2022/11/17 01:24:32;;;;;;;1.40;0.88;;;2.30;99.90;;;;;;4958837;28;20142;-67
2022/11/17 01:26:59;;;;;;;0.73;0.60;;;2.30;99.90;;;;;;4965779;28;20504;-67
2022/11/17 01:29:26;;;;;;;1.13;0.93;;;2.30;99.90;;;;;;4965174;28;20073;-67
2022/11/17 01:31:53;;;;;;;0.50;0.50;;;2.30;99.90;;;;;;4968279;28;20526;-67
2022/11/17 01:34:20;;;;;;;0.47;0.47;;;2.20;99.90;;;;;;4966874;28;20039;-68
2022/11/17 01:39:32;;;;;;;0.60;0.60;;;2.30;99.90;;;;;;4965846;28;20140;-68
2022/11/17 01:42:10;;;;;;;0.50;0.50;;;2.30;99.90;;;;;;4968213;28;20057;-67
2022/11/17 01:44:56;;;;;;;1.27;0.65;;;2.30;99.90;;;;;;4963524;28;20089;-66
2022/11/17 01:47:23;;;;;;;0.60;0.57;;;2.30;99.90;;;;;;4972258;28;20047;-67
2022/11/17 01:49:58;;;;;;;0.98;0.50;;;2.20;99.90;;;;;;4967127;28;20141;-67
2022/11/17 01:52:26;;;;;;;1.42;0.50;;;2.30;99.90;;;;;;4965039;28;20379;-67
2022/11/17 01:54:56;;;;;;;0.50;0.32;;;2.20;99.90;;;;;;4970760;28;20039;-67
2022/11/17 01:57:30;;;;;;;0.40;0.30;;;2.20;99.90;;;;;;4971661;28;20163;-67
2022/11/17 02:00:04;;;;;;;0.75;0.68;;;2.10;99.90;;;;;;4970844;28;20047;-67
2022/11/17 02:02:33;;;;;;;0.73;0.60;;;2.10;99.90;;;;;;4969949;28;20109;-67
2022/11/17 02:05:19;;;;;;;1.30;0.60;;;2.00;99.90;;;;;;4974930;28;20141;-67
2022/11/17 02:07:48;;;;;;;0.88;0.63;;;2.00;99.90;;;;;;4970797;28;20568;-66
2022/11/17 02:10:15;;;;;;;0.80;0.75;;;1.90;99.90;;;;;;4968345;28;20053;-68
2022/11/17 02:12:43;;;;;;;1.38;0.70;;;1.90;99.90;;;;;;4964578;28;20046;-67
2022/11/17 02:15:10;;;;;;;0.85;0.60;;;1.90;99.90;;;;;;4966134;28;20054;-68
2022/11/17 02:17:40;;;;;;;0.65;0.63;;;1.80;99.90;;;;;;4963265;28;20074;-68
2022/11/17 02:20:25;;;;;;;0.80;0.60;;;1.80;99.90;;;;;;4963588;28;20046;-67
2022/11/17 02:23:13;;;;;;;0.90;0.63;;;1.80;99.90;;;;;;4966647;28;20047;-66
2022/11/17 02:26:21;;;;;;;0.98;0.70;;;1.80;99.90;;;;;;4964681;28;20077;-67
2022/11/17 02:29:33;;;;;;;1.13;0.70;;;1.70;99.90;;;;;;4925011;29;20055;-67
2022/11/17 02:32:15;;;;;;;0.63;0.55;;;1.70;99.90;;;;;;4961996;28;20046;-66
2022/11/17 02:34:51;;;;;;;1.42;0.80;;;1.70;99.90;;;;;;4960071;28;20126;-66
2022/11/17 02:37:21;;;;;;;0.70;0.70;;;1.70;99.90;;;;;;4964249;28;20616;-66
2022/11/17 02:40:15;;;;;;;2.22;0.77;;;1.70;99.90;;;;;;4959093;28;20086;-66
2022/11/17 02:46:05;;;;;;;1.27;0.80;;;1.80;99.90;;;;;;4966090;28;20043;-67
2022/11/17 02:48:37;;;;;;;1.23;0.45;;;1.90;99.90;;;;;;4964364;28;20083;-66
2022/11/17 02:51:07;;;;;;;2.95;0.60;;;1.90;99.90;;;;;;4965023;28;20057;-66
2022/11/17 02:53:35;;;;;;;0.47;0.47;;;1.90;99.90;;;;;;4965800;28;20521;-68
2022/11/17 02:56:03;;;;;;;1.58;0.60;;;2.00;99.90;;;;;;4961558;28;20058;-67
2022/11/17 02:58:30;;;;;;;0.98;0.60;;;2.00;99.90;;;;;;4961289;28;20488;-68
2022/11/17 03:01:18;;;;;;;0.85;0.68;;;2.10;99.90;;;;;;4966099;28;20066;-67
2022/11/17 03:04:00;;;;;;;0.80;0.80;;;2.20;99.90;;;;;;4961183;28;20043;-67
2022/11/17 03:06:34;;;;;;;0.63;0.60;;;2.20;99.90;;;;;;4965605;28;20051;-69
2022/11/17 03:09:30;;;;;;;1.75;0.57;;;2.20;99.90;;;;;;4965099;28;20051;-66
2022/11/17 03:12:42;;;;;;;0.45;0.40;;;2.20;99.90;;;;;;4966363;28;20401;-68
2022/11/17 03:15:29;;;;;;;0.47;0.30;;;2.30;99.90;;;;;;4934834;29;20039;-67
2022/11/17 03:18:29;;;;;;;0.43;0.40;;;2.30;99.90;;;;;;4940553;29;20186;-66
2022/11/17 03:21:16;;;;;;;1.17;0.60;;;2.30;99.90;;;;;;4956666;28;20436;-68
2022/11/17 03:23:58;;;;;;;1.95;0.60;;;2.30;99.90;;;;;;4956106;28;20056;-67
2022/11/17 03:26:31;;;;;;;0.75;0.70;;;2.30;99.90;;;;;;4962401;28;20054;-67
2022/11/17 03:29:00;;;;;;;0.77;0.50;;;2.30;99.90;;;;;;4960232;28;20053;-68
2022/11/17 03:31:29;;;;;;;3.40;0.63;;;2.30;99.90;;;;;;4961513;28;20057;-68
2022/11/17 03:33:56;;;;;;;1.63;0.95;;;2.40;99.90;;;;;;4959873;28;20457;-68
2022/11/17 03:36:31;;;;;;;0.95;0.80;;;2.40;99.90;;;;;;4959637;28;20102;-68
2022/11/17 03:39:11;;;;;;;1.20;1.10;;;2.40;99.90;;;;;;4962040;28;20049;-67
2022/11/17 03:41:43;;;;;;;1.90;0.65;;;2.40;99.90;;;;;;4962806;28;20142;-67
2022/11/17 03:44:13;;;;;;;0.88;0.60;;;2.40;99.90;;;;;;4958800;28;20051;-67
2022/11/17 03:46:43;;;;;;;0.60;0.60;;;2.50;99.90;;;;;;4962419;28;20053;-67
2022/11/17 03:49:30;;;;;;;0.57;0.50;;;2.50;99.90;;;;;;4960501;28;20035;-68
2022/11/17 03:51:57;;;;;;;1.63;1.30;;;2.50;99.90;;;;;;4961197;28;20689;-67
2022/11/17 03:54:24;;;;;;;0.55;0.55;;;2.50;99.90;;;;;;4957034;28;20383;-68
2022/11/17 03:57:18;;;;;;;1.40;0.90;;;2.50;99.90;;;;;;4964772;28;20134;-68
2022/11/17 04:00:11;;;;;;;0.47;0.47;;;2.40;99.90;;;;;;4953592;28;20057;-70
2022/11/17 04:02:43;;;;;;;1.17;0.70;;;2.50;99.90;;;;;;4954888;28;20042;-67
2022/11/17 04:05:12;;;;;;;1.27;0.77;;;2.50;99.90;;;;;;4960086;28;20400;-66
2022/11/17 04:07:44;;;;;;;1.50;1.23;;;2.50;99.90;;;;;;4963124;28;20042;-67
2022/11/17 04:10:16;;;;;;;1.05;0.80;;;2.60;99.90;;;;;;4962077;28;20754;-67
2022/11/17 04:18:15;;;;;;;1.85;0.50;;;2.60;99.90;;;;;;4961673;28;20051;-68
2022/11/17 04:20:42;;;;;;;2.10;1.00;;;2.50;99.90;;;;;;4962158;28;20050;-66
2022/11/17 04:23:13;;;;;;;0.70;0.68;;;2.50;99.90;;;;;;4960537;28;20067;-67
2022/11/17 04:28:36;;;;;;;1.10;0.80;;;2.40;99.90;;;;;;4959260;28;20047;-68
2022/11/17 04:31:28;;;;;;;0.70;0.63;;;2.40;99.90;;;;;;4959549;28;20051;-67
2022/11/17 04:34:03;;;;;;;0.73;0.70;;;2.40;99.90;;;;;;4962319;28;20072;-68
2022/11/17 04:36:35;;;;;;;2.05;0.63;;;2.30;99.90;;;;;;4960295;28;20138;-67
2022/11/17 04:39:02;;;;;;;0.80;0.70;;;2.30;99.90;;;;;;4960567;28;20049;-67
2022/11/17 04:44:16;;;;;;;1.85;0.90;;;2.20;99.90;;;;;;4961096;28;20058;-68
2022/11/17 04:46:44;;;;;;;0.90;0.70;;;2.20;99.90;;;;;;4958693;28;20057;-67
2022/11/17 04:49:13;;;;;;;1.70;0.98;;;2.20;99.90;;;;;;4959465;28;20047;-68
2022/11/17 04:51:40;;;;;;;0.63;0.63;;;2.20;99.90;;;;;;4961593;28;20347;-67
2022/11/17 04:54:09;;;;;;;1.17;0.75;;;2.30;99.90;;;;;;4961208;28;20326;-67
2022/11/17 04:56:37;;;;;;;0.63;0.60;;;2.30;99.90;;;;;;4958081;28;20046;-68
2022/11/17 04:59:04;;;;;;;1.70;1.02;;;2.30;99.90;;;;;;4964646;28;20438;-67
2022/11/17 05:01:32;;;;;;;1.15;0.98;;;2.30;99.90;;;;;;4962592;28;20130;-68
2022/11/17 05:04:01;;;;;;;0.95;0.93;;;2.30;99.90;;;;;;4961843;28;20128;-68
2022/11/17 05:06:32;;;;;;;1.30;1.08;;;2.40;99.90;;;;;;4959684;28;20126;-68
2022/11/17 05:09:03;;;;;;;1.45;1.20;;;2.30;99.90;;;;;;4963659;28;20138;-67
2022/11/17 05:14:20;;;;;;;0.95;0.85;;;2.30;99.90;;;;;;4958952;28;20592;-67
2022/11/17 05:17:07;;;;;;;0.85;0.80;;;2.20;99.90;;;;;;4955644;28;20038;-67
2022/11/17 05:19:44;;;;;;;0.73;0.73;;;2.20;99.90;;;;;;4961009;28;20629;-68
2022/11/17 05:25:01;;;;;;;3.88;1.58;;;2.10;99.90;;;;;;4961681;28;20130;-69
2022/11/17 05:27:28;;;;;;;2.40;0.73;;;2.20;99.90;;;;;;4962643;28;20041;-67
2022/11/17 05:29:55;;;;;;;2.40;0.98;;;2.20;99.90;;;;;;4961085;28;20054;-67
2022/11/17 05:32:22;;;;;;;2.55;1.10;;;2.20;99.90;;;;;;4961520;28;20063;-67
2022/11/17 05:34:49;;;;;;;1.10;0.98;;;2.20;99.90;;;;;;4964312;28;20082;-67
2022/11/17 05:37:16;;;;;;;1.58;1.10;;;2.20;99.90;;;;;;4955995;28;20069;-68
2022/11/17 05:39:42;;;;;;;2.55;1.98;;;2.20;99.90;;;;;;4960286;28;20046;-67
2022/11/17 05:42:09;;;;;;;1.77;1.02;;;2.20;99.90;;;;;;4960419;28;20051;-67
2022/11/17 05:44:36;;;;;;;1.42;1.17;;;2.10;99.90;;;;;;4953120;28;20365;-67
2022/11/17 05:47:03;;;;;;;1.67;1.58;;;2.20;99.90;;;;;;4958201;28;20038;-67
2022/11/17 05:49:30;;;;;;;3.28;1.55;;;2.20;99.90;;;;;;4959453;28;20043;-68
2022/11/17 05:51:57;;;;;;;1.65;1.50;;;2.30;99.90;;;;;;4960685;28;20039;-68
2022/11/17 05:54:25;;;;;;;1.60;1.50;;;2.30;99.90;;;;;;4958814;28;20057;-68
2022/11/17 05:57:14;;;;;;;1.67;1.30;;;2.30;99.90;;;;;;4958675;28;20063;-68
2022/11/17 05:59:42;;;;;;;1.48;1.20;;;2.40;99.90;;;;;;4956948;28;20050;-67
2022/11/17 06:02:14;;;;;;;1.30;1.10;;;2.40;99.90;;;;;;4958682;28;20051;-68
2022/11/17 06:04:42;;;;;;;2.00;1.52;;;2.40;99.90;;;;;;4956271;28;20079;-67
2022/11/17 06:07:10;;;;;;;2.50;2.13;;;2.40;99.90;;;;;;4957371;28;20622;-67
2022/11/17 06:09:40;;;;;;;1.67;1.45;;;2.40;99.90;;;;;;4976642;28;20054;-67
2022/11/17 06:12:07;;;;;;;;;;;2.50;99.90;;;;;;4959738;28;20092;-68
2022/11/17 06:14:36;;;;;;;3.67;2.17;;;2.50;99.90;;;;;;4960441;28;19930;-67
2022/11/17 06:17:14;;;;;;;4.22;1.80;;;2.50;99.90;;;;;;4960286;28;20049;-70
2022/11/17 06:19:54;;;;;;;3.08;1.92;;;2.50;99.90;;;;;;4964295;28;20039;-67
2022/11/17 06:22:24;;;;;;;2.33;2.05;;;2.50;99.90;;;;;;4959839;28;20587;-69
2022/11/17 06:24:52;;;;;;;2.50;2.30;;;2.50;99.90;;;;;;4957018;28;20346;-68
2022/11/17 06:27:19;;;;;;;2.75;1.92;;;2.50;99.90;;;;;;4964695;28;20049;-68
2022/11/17 06:29:47;;;;;;;6.03;2.70;;;2.50;99.90;;;;;;4961205;28;20055;-67
2022/11/17 06:32:16;;;;;;;3.00;2.08;;;2.60;99.90;;;;;;4959748;28;20486;-67
2022/11/17 06:34:44;;;;;;;2.97;2.72;;;2.50;99.90;;;;;;4960959;28;20753;-67
2022/11/17 06:37:18;;;;;;;2.30;1.88;;;2.60;99.90;;;;;;4963921;28;20055;-68
2022/11/17 06:39:45;;;;;;;2.50;2.28;;;2.60;99.90;;;;;;4967158;28;20073;-67
2022/11/17 06:42:12;;;;;;;2.38;2.17;;;2.60;99.90;;;;;;4963500;28;20134;-67
2022/11/17 06:44:39;;;;;;;2.00;1.40;;;2.60;99.90;;;;;;4958512;28;20146;-67
2022/11/17 06:47:06;;;;;;;2.35;1.80;;;2.60;99.90;;;;;;4958938;28;20061;-67
2022/11/17 06:49:33;;;;;;;1.85;1.75;;;2.60;99.90;;;;;;4959120;28;20051;-67
2022/11/17 06:52:00;;;;;;;2.63;2.28;;;2.60;99.90;;;;;;4967153;28;20114;-67
2022/11/17 06:54:27;;;;;;;2.28;1.90;;;2.60;99.90;;;;;;4960141;28;20165;-67
2022/11/17 06:56:54;;;;;;;2.28;1.73;;;2.60;99.90;;;;;;4964820;28;20045;-67
2022/11/17 06:59:21;;;;;;;3.30;1.75;;;2.60;99.90;;;;;;4961071;28;20425;-67
2022/11/17 07:01:48;;;;;;;2.03;1.83;;;2.60;99.90;;;;;;4965195;28;20043;-67
2022/11/17 07:04:14;;;;;;;3.83;2.30;;;2.60;99.90;;;;;;4965725;28;20473;-67
2022/11/17 07:06:42;;;;;;;1.70;1.58;;;2.60;99.90;;;;;;4963072;28;20047;-67
2022/11/17 07:09:09;;;;;;;2.55;2.28;;;2.60;99.90;;;;;;4964505;28;20050;-66
2022/11/17 07:11:36;;;;;;;2.90;2.60;;;2.60;99.90;;;;;;4966179;28;20148;-68
2022/11/17 07:14:02;;;;;;;2.40;2.20;;;2.60;99.90;;;;;;4961383;28;20042;-66
2022/11/17 07:16:31;;;;;;;2.92;2.63;;;2.60;99.90;;;;;;4959118;28;20407;-67
2022/11/17 07:18:58;;;;;;;2.83;2.53;;;2.60;99.90;;;;;;4964895;28;20047;-68
2022/11/17 07:21:25;;;;;;;2.22;2.03;;;2.60;99.90;;;;;;4960495;28;20102;-67
2022/11/17 07:23:52;;;;;;;4.03;2.67;;;2.60;99.90;;;;;;4966380;28;20055;-66
2022/11/17 07:26:19;;;;;;;3.33;2.42;;;2.70;99.90;;;;;;4962082;28;20074;-67
2022/11/17 07:28:46;;;;;;;3.80;3.40;;;2.70;99.90;;;;;;4958141;28;20087;-68
2022/11/17 07:31:12;;;;;;;4.95;3.58;;;2.80;99.90;;;;;;4966304;28;20472;-67
2022/11/17 07:33:39;;;;;;;3.28;2.90;;;2.80;99.90;;;;;;4961388;28;20481;-67
2022/11/17 07:36:09;;;;;;;2.92;2.55;;;2.90;99.90;;;;;;4960549;28;20049;-68
2022/11/17 07:38:38;;;;;;;4.88;2.78;;;2.90;99.90;;;;;;4962246;28;20138;-67
2022/11/17 07:41:07;;;;;;;3.17;2.78;;;2.90;99.90;;;;;;4959805;28;20055;-68
2022/11/17 07:43:35;;;;;;;2.65;2.42;;;2.90;99.90;;;;;;4964665;28;20142;-69
2022/11/17 07:46:07;;;;;;;3.30;2.88;;;3.00;99.90;;;;;;4964944;28;20545;-67
2022/11/17 07:48:33;;;;;;;2.97;2.72;;;3.00;99.90;;;;;;4959366;28;20521;-67
2022/11/17 07:51:02;;;;;;;2.67;2.33;;;3.00;99.90;;;;;;4960976;28;20047;-67
2022/11/17 07:53:30;;;;;;;3.88;2.60;;;3.00;99.90;;;;;;4963305;28;20073;-68
2022/11/17 07:56:11;;;;;;;2.05;1.95;;;3.00;99.90;;;;;;4962404;28;20068;-67
2022/11/17 07:58:38;;;;;;;;;;;3.10;99.90;;;;;;4964670;28;20053;-68
2022/11/17 08:01:07;;;;;;;3.33;2.45;;;3.10;99.90;;;;;;4962954;28;20264;-67
2022/11/17 08:03:34;;;;;;;3.78;1.92;;;3.10;99.90;;;;;;4965016;28;20049;-67
2022/11/17 08:06:06;;;;;;;2.40;2.17;;;3.10;99.90;;;;;;4959970;28;20050;-66
2022/11/17 08:08:33;;;;;;;3.40;2.17;;;3.10;99.90;;;;;;4957940;28;20494;-68
2022/11/17 08:11:06;;;;;;;2.60;2.30;;;3.20;99.90;;;;;;4961596;28;20047;-68
2022/11/17 08:13:33;;;;;;;2.78;2.10;;;3.20;99.90;;;;;;4960662;28;20161;-67
2022/11/17 08:16:00;;;;;;;1.90;1.67;;;3.20;99.90;;;;;;4961327;28;20058;-67
2022/11/17 08:18:28;;;;;;;4.03;2.03;;;3.20;99.90;;;;;;4962203;28;20057;-68
2022/11/17 08:21:05;;;;;;;2.17;1.98;;;3.30;99.90;;;;;;4962222;28;20414;-68
2022/11/17 08:23:33;;;;;;;2.15;1.90;;;3.30;99.90;;;;;;4963000;28;20166;-68
2022/11/17 08:26:01;;;;;;;3.15;1.63;;;3.30;99.90;;;;;;4960910;28;20400;-67
2022/11/17 08:28:28;;;;;;;1.98;1.88;;;3.30;99.90;;;;;;4962198;28;20046;-68
2022/11/17 08:30:55;;;;;;;2.30;2.10;;;3.40;99.90;;;;;;4960663;28;20053;-67
2022/11/17 08:33:22;;;;;;;2.50;2.30;;;3.40;99.90;;;;;;4963212;28;20074;-68
2022/11/17 08:35:49;;;;;;;2.50;2.30;;;3.40;99.90;;;;;;4960565;28;20477;-69
2022/11/17 08:38:17;;;;;;;2.38;2.17;;;3.40;99.90;;;;;;4955989;28;20412;-67
2022/11/17 08:40:44;;;;;;;2.90;2.60;;;3.40;99.90;;;;;;4961015;28;20473;-67
2022/11/17 08:43:11;;;;;;;1.90;1.80;;;3.50;99.90;;;;;;4963548;28;20039;-68
2022/11/17 08:45:41;;;;;;;2.67;2.28;;;3.40;99.90;;;;;;4965340;28;20065;-67
2022/11/17 08:48:08;;;;;;;2.97;2.50;;;3.50;99.90;;;;;;4961009;28;20139;-67
2022/11/17 08:50:34;;;;;;;1.80;1.70;;;3.50;99.90;;;;;;4959329;28;20085;-69
2022/11/17 08:53:01;;;;;;;2.75;2.55;;;3.50;99.90;;;;;;4959983;28;20114;-67
2022/11/17 08:55:28;;;;;;;3.60;2.33;;;3.50;99.90;;;;;;4962224;28;20089;-67
2022/11/17 08:57:55;;;;;;;3.00;2.00;;;3.50;99.90;;;;;;4961211;28;20402;-67
2022/11/17 09:00:23;;;;;;;2.33;2.10;;;3.60;99.90;;;;;;4964680;28;20146;-67
2022/11/17 09:02:50;;;;;;;4.00;2.58;;;3.60;99.90;;;;;;4963112;28;20058;-67
2022/11/17 09:05:16;;;;;;;3.08;1.83;;;3.60;99.90;;;;;;4962394;28;20047;-69
2022/11/17 09:07:43;;;;;;;3.75;2.30;;;3.60;99.90;;;;;;4959940;28;20035;-67
2022/11/17 09:10:11;;;;;;;2.85;2.17;;;3.60;99.90;;;;;;4964216;28;20051;-67
2022/11/17 09:12:37;;;;;;;2.05;1.95;;;3.60;99.90;;;;;;4959550;28;20578;-69
2022/11/17 09:15:05;;;;;;;1.92;1.83;;;3.70;99.90;;;;;;4961037;28;20064;-67
2022/11/17 09:17:32;;;;;;;2.40;2.20;;;3.70;99.90;;;;;;4958673;28;20043;-69
2022/11/17 09:19:59;;;;;;;2.47;2.28;;;3.70;99.90;;;;;;4966092;28;20229;-67
2022/11/17 09:22:26;;;;;;;2.35;2.15;;;3.70;99.90;;;;;;4960875;28;20047;-68
2022/11/17 09:24:53;;;;;;;3.83;1.92;;;3.70;99.90;;;;;;4959903;28;20146;-67
2022/11/17 09:27:20;;;;;;;2.00;1.73;;;3.80;99.90;;;;;;4963440;28;20032;-68
2022/11/17 09:29:46;;;;;;;2.72;1.83;;;3.80;99.90;;;;;;4962400;28;20042;-67
2022/11/17 09:32:15;;;;;;;1.60;1.50;;;3.70;99.90;;;;;;4957544;28;20433;-67
2022/11/17 09:34:42;;;;;;;1.63;1.27;;;3.70;99.90;;;;;;4961748;28;20058;-68
2022/11/17 09:37:09;;;;;;;1.60;1.25;;;3.80;99.90;;;;;;4956955;28;20154;-67
2022/11/17 09:39:36;;;;;;;1.77;1.40;;;3.70;99.90;;;;;;4958440;28;21557;-67
2022/11/17 09:42:03;;;;;;;1.85;1.60;;;3.70;99.90;;;;;;4956299;28;20050;-68
2022/11/17 09:44:30;;;;;;;1.60;1.50;;;3.70;99.90;;;;;;4957377;28;20051;-67
2022/11/17 09:47:25;;;;;;;1.60;1.50;;;3.70;99.90;;;;;;4959788;28;20536;-67
2022/11/17 09:50:15;;;;;;;1.00;0.90;;;3.70;99.90;;;;;;4963657;28;20054;-67
2022/11/17 09:52:48;;;;;;;1.55;1.45;;;3.80;99.90;;;;;;4960436;28;20113;-74
2022/11/17 09:55:34;;;;;;;2.13;1.92;;;3.80;99.90;;;;;;4965961;28;20133;-67
2022/11/17 09:58:34;;;;;;;1.10;1.00;;;3.80;99.90;;;;;;4960631;28;20142;-67
2022/11/17 10:01:03;;;;;;;1.33;1.23;;;3.80;99.90;;;;;;4964131;28;20043;-68
2022/11/17 10:03:34;;;;;;;2.20;1.52;;;3.80;99.90;;;;;;4966437;28;20053;-67
2022/11/17 10:06:23;;;;;;;1.30;1.20;;;3.80;99.90;;;;;;4963586;28;20114;-67
2022/11/17 10:09:08;;;;;;;;;;;3.80;99.90;;;;;;4963029;28;20125;-68
2022/11/17 10:11:40;;;;;;;1.83;1.42;;;3.80;99.90;;;;;;4964505;28;20012;-66
2022/11/17 10:14:06;;;;;;;1.33;1.15;;;3.90;99.90;;;;;;4961305;28;20720;-67
2022/11/17 10:16:36;;;;;;;3.17;1.05;;;3.90;99.90;;;;;;4962878;28;20046;-67
2022/11/17 10:19:18;;;;;;;2.63;1.20;;;3.90;99.90;;;;;;4962227;28;20115;-67
2022/11/17 10:21:55;;;;;;;1.27;0.93;;;3.80;99.90;;;;;;4963126;28;20057;-68
2022/11/17 10:24:53;;;;;;;1.25;1.15;;;3.80;99.90;;;;;;4963191;28;20047;-68
2022/11/17 10:27:27;;;;;;;0.90;0.90;;;3.80;99.90;;;;;;4965750;28;20478;-67
2022/11/17 10:30:05;;;;;;;1.08;0.93;;;3.80;99.90;;;;;;4963810;28;20454;-68
2022/11/17 10:32:48;;;;;;;1.45;1.20;;;3.80;99.90;;;;;;4960495;28;20054;-70
2022/11/17 10:35:16;;;;;;;1.40;1.30;;;3.90;99.90;;;;;;4962364;28;20058;-68
2022/11/17 10:37:54;;;;;;;2.70;1.25;;;4.00;99.90;;;;;;4962778;28;20038;-69
2022/11/17 10:40:26;;;;;;;1.58;1.10;;;4.00;99.90;;;;;;4960395;28;20042;-69
2022/11/17 10:43:24;;;;;;;1.23;0.85;;;4.10;99.90;;;;;;4966883;28;20141;-68
2022/11/17 10:46:12;;;;;;;2.85;1.10;;;4.10;99.90;;;;;;4965246;28;20555;-68
2022/11/17 10:48:59;;;;;;;2.25;2.10;;;4.10;99.90;;;;;;4965252;28;20043;-68
2022/11/17 10:51:30;;;;;;;1.25;1.15;;;4.20;99.90;;;;;;4965765;28;20854;-70
2022/11/17 10:54:20;;;;;;;1.13;1.02;;;4.20;99.90;;;;;;4965056;28;20144;-68
2022/11/17 10:56:51;;;;;;;0.83;0.83;;;4.20;99.90;;;;;;4961613;28;20062;-68
2022/11/17 10:59:41;;;;;;;1.10;1.00;;;4.30;99.90;;;;;;4964523;28;20162;-66
2022/11/17 11:02:30;;;;;;;2.20;1.27;;;4.30;99.90;;;;;;4965151;28;20209;-68
2022/11/17 11:05:13;;;;;;;1.52;1.02;;;4.30;99.90;;;;;;4961685;28;20055;-68
2022/11/17 11:07:40;;;;;;;1.33;1.00;;;4.40;99.90;;;;;;4959239;28;20046;-68
2022/11/17 11:10:15;;;;;;;0.90;0.90;;;4.40;99.90;;;;;;4966726;28;20070;-68
2022/11/17 11:13:10;;;;;;;1.50;1.02;;;4.40;99.90;;;;;;4961092;28;20101;-68
2022/11/17 11:15:38;;;;;;;1.42;1.17;;;4.40;99.90;;;;;;4959225;28;20125;-69
2022/11/17 11:18:20;;;;;;;1.42;1.10;;;4.40;99.90;;;;;;4985736;28;20766;-67
2022/11/17 11:21:25;;;;;;;1.00;0.90;;;4.40;99.90;;;;;;4960930;28;20502;-68
2022/11/17 11:23:57;;;;;;;1.23;1.13;;;4.40;99.90;;;;;;4966310;28;20134;-68
2022/11/17 11:26:43;;;;;;;1.35;1.10;;;4.40;99.90;;;;;;4959520;28;20043;-68
2022/11/17 11:29:36;;;;;;;1.23;1.13;;;4.40;99.90;;;;;;4961325;28;20476;-70
2022/11/17 11:32:31;;;;;;;0.80;0.80;;;4.40;99.90;;;;;;4963262;28;20113;-68
2022/11/17 11:35:11;;;;;;;2.25;1.02;;;4.40;99.90;;;;;;4960090;28;20062;-68
2022/11/17 11:38:12;;;;;;;1.10;1.00;;;4.40;99.90;;;;;;4957134;28;20135;-69
2022/11/17 11:40:43;;;;;;;1.20;1.10;;;4.40;99.90;;;;;;4960399;28;20081;-67
2022/11/17 11:43:22;;;;;;;1.30;1.20;;;4.50;99.90;;;;;;4959722;28;20049;-68
2022/11/17 11:46:03;;;;;;;2.15;0.90;;;4.60;99.90;;;;;;4957324;28;20903;-69
2022/11/17 11:48:35;;;;;;;0.85;0.65;;;4.60;99.90;;;;;;4955409;28;20137;-69
2022/11/17 11:51:04;;;;;;;0.80;0.80;;;4.70;99.90;;;;;;4960091;28;21904;-70
2022/11/17 11:53:42;;;;;;;2.13;1.00;;;4.70;99.90;;;;;;4959705;28;20065;-73
2022/11/17 11:56:23;;;;;;;1.00;0.90;;;4.80;99.90;;;;;;4960785;28;20133;-68
2022/11/17 11:59:05;;;;;;;0.88;0.88;;;4.80;99.90;;;;;;4958693;28;20042;-69
2022/11/17 12:02:11;;;;;;;2.70;0.85;;;4.80;99.90;;;;;;4956598;28;20046;-70
2022/11/17 12:05:28;;;;;;;0.80;0.80;;;4.90;99.90;;;;;;4952683;28;20043;-69
2022/11/17 12:08:14;;;;;;;1.00;0.60;;;4.90;99.90;;;;;;4943753;28;20511;-68
2022/11/17 12:10:47;;;;;;;1.13;0.70;;;4.90;99.90;;;;;;4959051;28;20061;-68
2022/11/17 12:13:18;;;;;;;0.95;0.88;;;4.80;99.90;;;;;;4962059;28;20562;-68
2022/11/17 12:15:44;;;;;;;0.73;0.73;;;4.80;99.90;;;;;;4960422;28;20142;-67
2022/11/17 12:18:11;;;;;;;3.70;2.60;;;4.70;99.90;;;;;;4963589;28;20043;-68
2022/11/17 12:20:39;;;;;;;1.40;1.00;;;4.70;99.90;;;;;;4960296;28;20174;-69
2022/11/17 12:23:24;;;;;;;1.35;1.02;;;4.70;99.90;;;;;;4964530;28;20576;-68
2022/11/17 12:25:55;;;;;;;3.15;1.52;;;4.60;99.90;;;;;;4962427;28;20724;-68
2022/11/17 12:28:28;;;;;;;0.70;0.70;;;4.50;99.90;;;;;;4959875;28;20050;-68
2022/11/17 12:30:57;;;;;;;1.15;1.05;;;4.40;99.90;;;;;;4963807;28;20046;-68
2022/11/17 12:34:07;;;;;;;1.08;0.90;;;4.40;99.90;;;;;;4966868;28;20145;-69
2022/11/17 12:36:35;;;;;;;1.42;1.33;;;4.40;99.90;;;;;;4957217;28;20138;-69
2022/11/17 12:39:07;;;;;;;1.10;1.00;;;4.20;99.90;;;;;;4963437;28;20043;-69
2022/11/17 12:41:49;;;;;;;1.63;0.75;;;4.20;99.90;;;;;;4956699;28;20070;-68
2022/11/17 12:44:44;;;;;;;2.00;1.08;;;4.10;99.90;;;;;;4962660;28;20133;-68
2022/11/17 12:47:21;;;;;;;0.93;0.82;;;4.10;99.90;;;;;;4962284;28;20729;-68
2022/11/17 12:49:48;;;;;;;1.20;1.10;;;4.00;99.90;;;;;;4963678;28;20048;-67
2022/11/17 12:52:57;;;;;;;1.20;1.10;;;3.90;99.90;;;;;;4962697;28;20697;-68
2022/11/17 12:55:47;;;;;;;2.80;0.80;;;3.90;99.90;;;;;;4948493;28;20137;-69
2022/11/17 12:58:20;;;;;;;1.05;0.95;;;3.80;99.90;;;;;;4959011;28;20055;-67
2022/11/17 13:01:30;;;;;;;1.75;1.20;;;3.80;99.90;;;;;;4958507;28;20054;-67
2022/11/17 13:04:20;;;;;;;2.42;0.90;;;3.90;99.90;;;;;;4946818;28;20059;-68
2022/11/17 13:07:05;;;;;;;1.25;1.15;;;4.00;99.90;;;;;;4962004;28;20133;-68
2022/11/17 13:09:34;;;;;;;1.20;1.00;;;4.00;99.90;;;;;;4958838;28;20051;-68
2022/11/17 13:12:10;;;;;;;2.20;0.93;;;4.00;99.90;;;;;;4962263;28;20131;-67
2022/11/17 13:14:55;;;;;;;2.08;1.90;;;4.00;99.90;;;;;;4957939;28;20047;-67
2022/11/17 13:17:27;;;;;;;1.17;1.10;;;3.90;99.90;;;;;;4964874;28;20112;-67
2022/11/17 13:20:00;;;;;;;1.20;0.75;;;3.90;99.90;;;;;;4959310;28;20488;-67
2022/11/17 13:22:27;;;;;;;4.00;0.93;;;3.90;99.90;;;;;;4959033;28;20161;-68
2022/11/17 13:24:56;;;;;;;2.72;1.17;;;3.90;99.90;;;;;;4959941;28;20051;-67
2022/11/17 13:27:29;;;;;;;1.52;1.20;;;3.90;99.90;;;;;;4962492;28;20936;-67
2022/11/17 13:30:34;;;;;;;1.67;1.10;;;3.80;99.90;;;;;;4961748;28;20127;-67
2022/11/17 13:33:02;;;;;;;1.27;1.17;;;3.80;99.90;;;;;;4956331;28;20055;-67
2022/11/17 13:35:33;;;;;;;2.55;0.90;;;3.70;99.90;;;;;;4961088;28;20501;-68
2022/11/17 13:38:20;;;;;;;1.00;1.00;;;3.70;99.90;;;;;;4959684;28;20393;-67
2022/11/17 13:40:49;;;;;;;2.03;1.90;;;3.60;99.90;;;;;;4955295;28;20142;-68
2022/11/17 13:43:22;;;;;;;0.80;0.80;;;3.50;99.90;;;;;;4961197;28;20533;-67
2022/11/17 13:45:50;;;;;;;0.80;0.80;;;3.40;99.90;;;;;;4962424;28;20137;-68
2022/11/17 13:48:40;;;;;;;0.98;0.73;;;3.40;99.90;;;;;;4959906;28;20117;-68
2022/11/17 13:51:19;;;;;;;1.80;1.17;;;3.30;99.90;;;;;;4940317;28;20134;-68
2022/11/17 13:53:51;;;;;;;1.92;1.10;;;3.30;99.90;;;;;;4940493;28;20051;-70
2022/11/17 13:56:30;;;;;;;1.15;0.93;;;3.30;99.90;;;;;;4942310;28;20405;-67
2022/11/17 13:59:00;;;;;;;0.98;0.90;;;3.30;99.90;;;;;;4940643;28;20079;-67
2022/11/17 14:01:28;;;;;;;1.10;0.77;;;3.30;99.90;;;;;;4943611;28;20078;-68
2022/11/17 14:04:16;;;;;;;0.93;0.75;;;3.30;99.90;;;;;;4945284;28;20348;-68
2022/11/17 14:06:58;;;;;;;3.47;1.30;;;3.20;99.90;;;;;;4939149;28;20090;-67